Accueil
METAR-TAF:

METAR-TAF

Aéroports :

Aéroport international de Yap

Yap, Micronésie

latitude: 09-29N, longitude: 138-05E, altitude: 28 m

Observation

Le bulletin a été fait il y a 22 minutes, à 13:51 UTC
Vent 6 kt de direction variable
Température 28°C
Humidité 84%
Pression 1011 hPa
Visibilité: 19.3 km
Quelques nuages à une hauteur de 1900 ft
Nuages fragmentés à une hauteur de 30000 ft

METAR: PTYA 121351Z VRB06KT 12SM FEW019 BKN300 28/25 A2986 RMK SLP112 T02760250

Heure: 00:13 (14:13 UTC)

Prévision

Le bulletin a été fait il y a 2 heures et 53 minutes, à 11:20 UTC
Prévision valable du 12 à 12 UTC au 13 à 12 UTC
Vent 8 kt de est
Visibilité: 10 km
Quelques nuages à une hauteur de 1800 ft

TAF: PTYA 121120Z 1212/1312 09008KT P6SM FEW018

Observations et prévisions météorologiques de plus de 4000 aéroports (messages METAR et TAF).

Les stations disponibles sont représentées par des disques jaunes et rouges sur la carte.

Passer la souris dessus pour voir le nom de la station.

Cliquer dessus pour voir les observations et prévisions météorologiques.

Pour changer de carte: cliquez sur les boutons verts avec une croix noire pour zoomer, sur le bouton vert avec un tiret pour effectuer un zoom arrière, ou sur les flèches vertes pour les cartes adjacentes.


METAR-TAF: